CFG926 EDDS-EDDN
Flight info
| Callsign | CFG926 |
|---|---|
| Flight time | 1h 19m |
| Altitude | 19000 |
| Route | DKB4H DKB N869 LETKU LETKU1V |
| Aircraft | A321/M-SDE3FGHIRWY/LB1 |
Departure
| Time | 2026-05-04 17:33 |
|---|---|
| Airport | Stuttgart Airport (EDDS) |
Arrival
| Time | 2026-05-04 18:52 |
|---|---|
| Airport | Nuremberg Airport (EDDN) |
| Time | Latitude | Longitude | Altitude | Speed | Heading |
|---|---|---|---|---|---|
| 2026-05-04 17:20 | 48.68947 | 9.20220 | 1294 ft | 0 kts | 163° |
| 2026-05-04 17:30 | 48.68862 | 9.20166 | 1292 ft | 8 kts | 259° |
| 2026-05-04 17:31 | 48.68824 | 9.19996 | 1295 ft | 14 kts | 231° |
| 2026-05-04 17:31 | 48.68592 | 9.20032 | 1285 ft | 15 kts | 146° |
| 2026-05-04 17:32 | 48.68691 | 9.20624 | 1272 ft | 85 kts | 74° |
| 2026-05-04 17:33 | 48.69537 | 9.25271 | 2238 ft | 172 kts | 71° |
| 2026-05-04 17:33 | 48.69850 | 9.27025 | 2809 ft | 179 kts | 71° |
| 2026-05-04 17:34 | 48.71090 | 9.33478 | 3607 ft | 250 kts | 71° |
| 2026-05-04 17:34 | 48.71588 | 9.36073 | 4417 ft | 261 kts | 73° |
| 2026-05-04 17:35 | 48.73149 | 9.44270 | 7112 ft | 281 kts | 76° |
| 2026-05-04 17:35 | 48.74513 | 9.49919 | 8937 ft | 294 kts | 62° |
| 2026-05-04 17:35 | 48.75739 | 9.52440 | 9818 ft | 301 kts | 52° |
| 2026-05-04 17:36 | 48.77108 | 9.54919 | 10415 ft | 317 kts | 52° |
| 2026-05-04 17:36 | 48.78571 | 9.57587 | 10731 ft | 341 kts | 52° |
| 2026-05-04 17:36 | 48.80117 | 9.60417 | 11314 ft | 353 kts | 51° |
| 2026-05-04 17:36 | 48.81697 | 9.63312 | 12180 ft | 359 kts | 51° |
| 2026-05-04 17:37 | 48.83297 | 9.66246 | 13041 ft | 363 kts | 51° |
| 2026-05-04 17:37 | 48.84915 | 9.69221 | 13896 ft | 368 kts | 51° |
| 2026-05-04 17:37 | 48.86554 | 9.72238 | 14672 ft | 373 kts | 51° |
| 2026-05-04 17:37 | 48.88214 | 9.75300 | 15419 ft | 378 kts | 51° |
| 2026-05-04 17:38 | 48.89893 | 9.78396 | 16139 ft | 383 kts | 51° |
| 2026-05-04 17:38 | 48.91599 | 9.81545 | 16837 ft | 388 kts | 51° |
| 2026-05-04 17:38 | 48.93322 | 9.84734 | 17524 ft | 393 kts | 51° |
| 2026-05-04 17:38 | 48.95067 | 9.87968 | 18204 ft | 398 kts | 51° |
| 2026-05-04 17:39 | 48.98609 | 9.94526 | 18783 ft | 403 kts | 51° |
| 2026-05-04 17:39 | 48.99789 | 9.96716 | 18903 ft | 404 kts | 51° |
| 2026-05-04 17:39 | 49.01568 | 10.00026 | 18969 ft | 404 kts | 51° |
| 2026-05-04 17:40 | 49.03346 | 10.03337 | 18974 ft | 403 kts | 51° |
| 2026-05-04 17:40 | 49.05120 | 10.06645 | 18977 ft | 403 kts | 51° |
| 2026-05-04 17:40 | 49.06892 | 10.09957 | 18981 ft | 403 kts | 51° |
| 2026-05-04 17:40 | 49.08661 | 10.13278 | 18991 ft | 403 kts | 51° |
| 2026-05-04 17:41 | 49.10429 | 10.16606 | 18983 ft | 404 kts | 51° |
| 2026-05-04 17:41 | 49.12200 | 10.19936 | 18984 ft | 404 kts | 51° |
| 2026-05-04 17:41 | 49.13976 | 10.23263 | 18983 ft | 404 kts | 50° |
| 2026-05-04 17:41 | 49.15915 | 10.26370 | 18992 ft | 404 kts | 45° |
| 2026-05-04 17:42 | 49.17872 | 10.29379 | 18852 ft | 394 kts | 45° |
| 2026-05-04 17:42 | 49.19784 | 10.32332 | 18451 ft | 388 kts | 45° |
| 2026-05-04 17:42 | 49.21671 | 10.35265 | 18028 ft | 384 kts | 45° |
| 2026-05-04 17:42 | 49.23543 | 10.38179 | 17741 ft | 384 kts | 45° |
| 2026-05-04 17:43 | 49.25421 | 10.41088 | 17478 ft | 383 kts | 45° |
| 2026-05-04 17:43 | 49.27299 | 10.43969 | 17207 ft | 382 kts | 45° |
| 2026-05-04 17:43 | 49.29179 | 10.46834 | 16952 ft | 381 kts | 45° |
| 2026-05-04 17:43 | 49.31051 | 10.49687 | 16590 ft | 377 kts | 45° |
| 2026-05-04 17:44 | 49.32901 | 10.52514 | 16106 ft | 374 kts | 45° |
| 2026-05-04 17:44 | 49.34738 | 10.55325 | 15627 ft | 372 kts | 45° |
| 2026-05-04 17:44 | 49.36555 | 10.58122 | 15141 ft | 369 kts | 45° |
| 2026-05-04 17:44 | 49.38351 | 10.60910 | 14697 ft | 366 kts | 46° |
| 2026-05-04 17:45 | 49.40092 | 10.63730 | 14250 ft | 363 kts | 52° |
| 2026-05-04 17:45 | 49.41463 | 10.66950 | 13805 ft | 359 kts | 65° |
| 2026-05-04 17:45 | 49.42355 | 10.70486 | 13319 ft | 353 kts | 77° |
| 2026-05-04 17:45 | 49.42759 | 10.74175 | 12831 ft | 348 kts | 89° |
| 2026-05-04 17:46 | 49.42679 | 10.77854 | 12339 ft | 342 kts | 101° |
| 2026-05-04 17:46 | 49.42330 | 10.81462 | 11877 ft | 340 kts | 102° |
| 2026-05-04 17:46 | 49.41986 | 10.85007 | 11614 ft | 340 kts | 102° |
| 2026-05-04 17:46 | 49.41639 | 10.88591 | 11357 ft | 339 kts | 102° |
| 2026-05-04 17:47 | 49.41294 | 10.92153 | 10946 ft | 336 kts | 102° |
| 2026-05-04 17:47 | 49.40953 | 10.95684 | 10489 ft | 333 kts | 102° |
| 2026-05-04 17:47 | 49.40614 | 10.99190 | 10052 ft | 330 kts | 102° |
| 2026-05-04 17:47 | 49.40283 | 11.02627 | 9852 ft | 319 kts | 102° |
| 2026-05-04 17:48 | 49.39962 | 11.05931 | 9721 ft | 306 kts | 102° |
| 2026-05-04 17:48 | 49.39644 | 11.09144 | 9540 ft | 296 kts | 102° |
| 2026-05-04 17:48 | 49.39335 | 11.12236 | 9193 ft | 292 kts | 102° |
| 2026-05-04 17:48 | 49.39035 | 11.15257 | 8823 ft | 289 kts | 102° |
| 2026-05-04 17:49 | 49.38734 | 11.18291 | 8443 ft | 286 kts | 101° |
| 2026-05-04 17:49 | 49.38433 | 11.21301 | 8054 ft | 284 kts | 101° |
| 2026-05-04 17:49 | 49.38131 | 11.24289 | 7665 ft | 282 kts | 101° |
| 2026-05-04 17:49 | 49.37830 | 11.27251 | 7296 ft | 280 kts | 101° |
| 2026-05-04 17:50 | 49.37533 | 11.30190 | 6933 ft | 277 kts | 100° |
| 2026-05-04 17:50 | 49.37241 | 11.33098 | 6613 ft | 273 kts | 100° |
| 2026-05-04 17:50 | 49.36952 | 11.35942 | 6375 ft | 266 kts | 100° |
| 2026-05-04 17:50 | 49.36673 | 11.38705 | 6121 ft | 259 kts | 99° |
| 2026-05-04 17:51 | 49.36612 | 11.41415 | 5868 ft | 253 kts | 78° |
| 2026-05-04 17:51 | 49.37366 | 11.43790 | 5618 ft | 249 kts | 48° |
| 2026-05-04 17:51 | 49.38779 | 11.45234 | 5370 ft | 245 kts | 20° |
| 2026-05-04 17:51 | 49.40413 | 11.45862 | 5128 ft | 241 kts | 2° |
| 2026-05-04 17:52 | 49.42018 | 11.45291 | 4879 ft | 239 kts | 330° |
| 2026-05-04 17:52 | 49.43301 | 11.43689 | 4632 ft | 239 kts | 316° |
| 2026-05-04 17:52 | 49.44467 | 11.41874 | 4370 ft | 238 kts | 315° |
| 2026-05-04 17:52 | 49.45606 | 11.40044 | 4136 ft | 235 kts | 314° |
| 2026-05-04 17:53 | 49.46616 | 11.38137 | 4021 ft | 226 kts | 298° |
| 2026-05-04 17:53 | 49.47062 | 11.35908 | 4045 ft | 217 kts | 279° |
| 2026-05-04 17:53 | 49.47289 | 11.33641 | 4007 ft | 209 kts | 280° |
| 2026-05-04 17:53 | 49.47508 | 11.31466 | 3834 ft | 202 kts | 280° |
| 2026-05-04 17:54 | 49.47717 | 11.29393 | 3585 ft | 192 kts | 280° |
| 2026-05-04 17:54 | 49.47917 | 11.27401 | 3363 ft | 185 kts | 280° |
| 2026-05-04 17:54 | 49.48109 | 11.25490 | 3130 ft | 175 kts | 280° |
| 2026-05-04 17:54 | 49.48287 | 11.23716 | 2879 ft | 161 kts | 280° |
| 2026-05-04 17:55 | 49.48448 | 11.22107 | 2674 ft | 146 kts | 282° |
| 2026-05-04 17:55 | 49.48600 | 11.20587 | 2489 ft | 141 kts | 280° |
| 2026-05-04 17:55 | 49.48747 | 11.19113 | 2306 ft | 139 kts | 281° |
| 2026-05-04 17:55 | 49.48893 | 11.17652 | 2117 ft | 137 kts | 281° |
| 2026-05-04 17:56 | 49.49040 | 11.16207 | 1960 ft | 136 kts | 282° |
| 2026-05-04 17:56 | 49.49185 | 11.14750 | 1747 ft | 139 kts | 281° |
| 2026-05-04 17:56 | 49.49325 | 11.13285 | 1557 ft | 138 kts | 282° |
| 2026-05-04 17:56 | 49.49464 | 11.11816 | 1368 ft | 138 kts | 281° |
| 2026-05-04 17:57 | 49.49619 | 11.10365 | 1209 ft | 138 kts | 279° |
| 2026-05-04 17:57 | 49.49756 | 11.08914 | 1054 ft | 134 kts | 280° |
| 2026-05-04 17:57 | 49.49869 | 11.07595 | 1029 ft | 119 kts | 281° |
| 2026-05-04 17:57 | 49.49994 | 11.06127 | 1518 ft | 148 kts | 283° |
| 2026-05-04 17:58 | 49.50151 | 11.04528 | 2434 ft | 156 kts | 281° |
| 2026-05-04 17:58 | 49.50348 | 11.02806 | 2785 ft | 173 kts | 283° |
| 2026-05-04 17:58 | 49.50596 | 11.00908 | 2973 ft | 195 kts | 282° |
| 2026-05-04 17:58 | 49.50852 | 10.98686 | 3236 ft | 218 kts | 281° |
| 2026-05-04 17:59 | 49.51112 | 10.96340 | 3759 ft | 233 kts | 280° |
| 2026-05-04 17:59 | 49.51407 | 10.93866 | 4480 ft | 230 kts | 281° |
| 2026-05-04 17:59 | 49.52117 | 10.89164 | 5184 ft | 229 kts | 295° |
| 2026-05-04 18:00 | 49.53118 | 10.87291 | 5414 ft | 230 kts | 326° |
| 2026-05-04 18:00 | 49.54605 | 10.86457 | 5663 ft | 230 kts | 356° |
| 2026-05-04 18:00 | 49.56194 | 10.86694 | 5888 ft | 231 kts | 11° |
| 2026-05-04 18:00 | 49.57767 | 10.87231 | 5983 ft | 231 kts | 15° |
| 2026-05-04 18:01 | 49.59162 | 10.88388 | 6009 ft | 229 kts | 48° |
| 2026-05-04 18:01 | 49.59916 | 10.90483 | 6011 ft | 225 kts | 82° |
| 2026-05-04 18:01 | 49.59941 | 10.92869 | 6013 ft | 223 kts | 96° |
| 2026-05-04 18:02 | 49.59560 | 10.97627 | 6009 ft | 224 kts | 99° |
| 2026-05-04 18:02 | 49.59349 | 11.00005 | 6009 ft | 224 kts | 99° |
| 2026-05-04 18:02 | 49.59139 | 11.02385 | 6008 ft | 224 kts | 99° |
| 2026-05-04 18:02 | 49.58931 | 11.04761 | 6006 ft | 224 kts | 99° |
| 2026-05-04 18:03 | 49.58721 | 11.07138 | 6006 ft | 224 kts | 99° |
| 2026-05-04 18:03 | 49.58508 | 11.09508 | 6007 ft | 223 kts | 99° |
| 2026-05-04 18:03 | 49.58297 | 11.11881 | 6009 ft | 223 kts | 99° |
| 2026-05-04 18:03 | 49.58085 | 11.14269 | 5797 ft | 225 kts | 99° |
| 2026-05-04 18:04 | 49.57869 | 11.16636 | 5546 ft | 222 kts | 100° |
| 2026-05-04 18:04 | 49.57646 | 11.18986 | 5292 ft | 221 kts | 99° |
| 2026-05-04 18:04 | 49.57190 | 11.23606 | 5010 ft | 216 kts | 99° |
| 2026-05-04 18:05 | 49.56960 | 11.25899 | 5023 ft | 217 kts | 99° |
| 2026-05-04 18:05 | 49.56726 | 11.28195 | 5019 ft | 217 kts | 99° |
| 2026-05-04 18:05 | 49.56480 | 11.30504 | 5021 ft | 219 kts | 99° |
| 2026-05-04 18:05 | 49.56227 | 11.32811 | 5022 ft | 219 kts | 99° |
| 2026-05-04 18:06 | 49.55717 | 11.37414 | 5024 ft | 218 kts | 99° |
| 2026-05-04 18:06 | 49.55463 | 11.39719 | 5028 ft | 219 kts | 99° |
| 2026-05-04 18:06 | 49.55209 | 11.42022 | 5028 ft | 218 kts | 99° |
| 2026-05-04 18:07 | 49.54955 | 11.44324 | 5024 ft | 218 kts | 99° |
| 2026-05-04 18:07 | 49.54701 | 11.46619 | 5025 ft | 218 kts | 99° |
| 2026-05-04 18:07 | 49.54445 | 11.48920 | 5029 ft | 218 kts | 99° |
| 2026-05-04 18:07 | 49.54155 | 11.51213 | 5026 ft | 219 kts | 109° |
| 2026-05-04 18:08 | 49.53328 | 11.53112 | 4885 ft | 221 kts | 141° |
| 2026-05-04 18:08 | 49.51929 | 11.54002 | 4638 ft | 220 kts | 176° |
| 2026-05-04 18:08 | 49.50456 | 11.53517 | 4371 ft | 220 kts | 211° |
| 2026-05-04 18:08 | 49.49417 | 11.51832 | 4136 ft | 220 kts | 245° |
| 2026-05-04 18:09 | 49.48438 | 11.47375 | 4019 ft | 221 kts | 255° |
| 2026-05-04 18:09 | 49.47575 | 11.42816 | 4020 ft | 222 kts | 255° |
| 2026-05-04 18:10 | 49.47145 | 11.40541 | 4022 ft | 222 kts | 255° |
| 2026-05-04 18:10 | 49.46842 | 11.38223 | 4014 ft | 221 kts | 275° |
| 2026-05-04 18:10 | 49.47048 | 11.35891 | 4052 ft | 220 kts | 280° |
| 2026-05-04 18:10 | 49.47294 | 11.33565 | 4006 ft | 221 kts | 280° |
| 2026-05-04 18:11 | 49.47529 | 11.31271 | 3798 ft | 214 kts | 280° |
| 2026-05-04 18:11 | 49.47754 | 11.29037 | 3550 ft | 207 kts | 280° |
| 2026-05-04 18:11 | 49.47964 | 11.26940 | 3294 ft | 189 kts | 281° |
| 2026-05-04 18:11 | 49.48157 | 11.25017 | 3044 ft | 175 kts | 281° |
| 2026-05-04 18:12 | 49.48331 | 11.23273 | 2830 ft | 156 kts | 282° |
| 2026-05-04 18:12 | 49.48488 | 11.21698 | 2623 ft | 145 kts | 282° |
| 2026-05-04 18:12 | 49.48638 | 11.20205 | 2435 ft | 139 kts | 281° |
| 2026-05-04 18:12 | 49.48783 | 11.18752 | 2257 ft | 137 kts | 281° |
| 2026-05-04 18:13 | 49.48928 | 11.17303 | 2071 ft | 137 kts | 282° |
| 2026-05-04 18:13 | 49.49071 | 11.15867 | 1888 ft | 135 kts | 282° |
| 2026-05-04 18:13 | 49.49355 | 11.13001 | 1534 ft | 135 kts | 282° |
| 2026-05-04 18:14 | 49.49497 | 11.11570 | 1348 ft | 134 kts | 282° |
| 2026-05-04 18:14 | 49.49636 | 11.10164 | 1174 ft | 133 kts | 281° |
| 2026-05-04 18:14 | 49.49773 | 11.08774 | 1047 ft | 126 kts | 278° |
| 2026-05-04 18:15 | 49.50000 | 11.05830 | 1596 ft | 161 kts | 278° |
| 2026-05-04 18:15 | 49.50310 | 11.02264 | 2813 ft | 186 kts | 279° |
| 2026-05-04 18:15 | 49.50477 | 11.00217 | 3244 ft | 200 kts | 278° |
| 2026-05-04 18:16 | 49.50663 | 10.98003 | 3652 ft | 216 kts | 278° |
| 2026-05-04 18:16 | 49.50862 | 10.95696 | 4068 ft | 220 kts | 278° |
| 2026-05-04 18:16 | 49.51077 | 10.93353 | 4498 ft | 222 kts | 278° |
| 2026-05-04 18:17 | 49.51542 | 10.88625 | 5326 ft | 226 kts | 278° |
| 2026-05-04 18:17 | 49.51802 | 10.86240 | 5581 ft | 226 kts | 278° |
| 2026-05-04 18:17 | 49.52426 | 10.81512 | 5971 ft | 227 kts | 294° |
| 2026-05-04 18:18 | 49.53428 | 10.79675 | 6013 ft | 228 kts | 327° |
| 2026-05-04 18:18 | 49.54927 | 10.78976 | 6016 ft | 228 kts | 1° |
| 2026-05-04 18:18 | 49.56498 | 10.79316 | 6023 ft | 229 kts | 13° |
| 2026-05-04 18:18 | 49.58054 | 10.79881 | 6017 ft | 230 kts | 14° |
| 2026-05-04 18:19 | 49.61151 | 10.81080 | 6016 ft | 229 kts | 14° |
| 2026-05-04 18:19 | 49.62699 | 10.81685 | 6015 ft | 230 kts | 14° |
| 2026-05-04 18:19 | 49.64245 | 10.82292 | 6016 ft | 230 kts | 14° |
| 2026-05-04 18:20 | 49.65793 | 10.82900 | 6016 ft | 229 kts | 14° |
| 2026-05-04 18:20 | 49.67341 | 10.83509 | 6017 ft | 229 kts | 14° |
| 2026-05-04 18:20 | 49.68889 | 10.84119 | 6018 ft | 230 kts | 14° |
| 2026-05-04 18:20 | 49.70304 | 10.85192 | 6014 ft | 228 kts | 44° |
| 2026-05-04 18:21 | 49.71121 | 10.87244 | 6015 ft | 226 kts | 78° |
| 2026-05-04 18:21 | 49.71128 | 10.89680 | 6030 ft | 236 kts | 101° |
| 2026-05-04 18:21 | 49.70806 | 10.92200 | 6016 ft | 241 kts | 104° |
| 2026-05-04 18:21 | 49.70378 | 10.94706 | 6009 ft | 241 kts | 115° |
| 2026-05-04 18:22 | 49.69569 | 10.96961 | 6013 ft | 241 kts | 123° |
| 2026-05-04 18:22 | 49.68668 | 10.99136 | 6012 ft | 241 kts | 124° |
| 2026-05-04 18:22 | 49.67750 | 11.01305 | 6013 ft | 241 kts | 124° |
| 2026-05-04 18:22 | 49.66832 | 11.03467 | 6015 ft | 241 kts | 124° |
| 2026-05-04 18:23 | 49.65913 | 11.05627 | 6009 ft | 240 kts | 124° |
| 2026-05-04 18:23 | 49.64999 | 11.07776 | 5958 ft | 241 kts | 124° |
| 2026-05-04 18:23 | 49.64085 | 11.09928 | 5696 ft | 238 kts | 122° |
| 2026-05-04 18:23 | 49.63339 | 11.12197 | 5446 ft | 237 kts | 115° |
| 2026-05-04 18:24 | 49.62667 | 11.14507 | 5199 ft | 235 kts | 114° |
| 2026-05-04 18:24 | 49.62001 | 11.16798 | 5032 ft | 234 kts | 114° |
| 2026-05-04 18:24 | 49.61331 | 11.19084 | 5008 ft | 234 kts | 114° |
| 2026-05-04 18:24 | 49.60661 | 11.21370 | 5011 ft | 234 kts | 114° |
| 2026-05-04 18:25 | 49.59992 | 11.23649 | 5009 ft | 233 kts | 114° |
| 2026-05-04 18:25 | 49.59333 | 11.25898 | 5018 ft | 232 kts | 114° |
| 2026-05-04 18:25 | 49.58897 | 11.27390 | 5014 ft | 221 kts | 114° |
| 2026-05-04 18:25 | 49.58097 | 11.30114 | 5030 ft | 200 kts | 114° |
| 2026-05-04 18:26 | 49.57525 | 11.32019 | 5015 ft | 193 kts | 114° |
| 2026-05-04 18:26 | 49.56958 | 11.33892 | 5016 ft | 193 kts | 114° |
| 2026-05-04 18:26 | 49.56394 | 11.35756 | 5016 ft | 192 kts | 115° |
| 2026-05-04 18:26 | 49.55833 | 11.37619 | 5021 ft | 192 kts | 114° |
| 2026-05-04 18:27 | 49.55454 | 11.38878 | 5014 ft | 192 kts | 114° |
| 2026-05-04 18:27 | 49.54891 | 11.40740 | 5015 ft | 192 kts | 115° |
| 2026-05-04 18:27 | 49.54328 | 11.42609 | 5023 ft | 192 kts | 114° |
| 2026-05-04 18:27 | 49.53769 | 11.44459 | 4834 ft | 193 kts | 115° |
| 2026-05-04 18:28 | 49.52947 | 11.46090 | 4568 ft | 193 kts | 146° |
| 2026-05-04 18:28 | 49.51663 | 11.46580 | 4316 ft | 195 kts | 186° |
| 2026-05-04 18:28 | 49.50450 | 11.45713 | 4086 ft | 196 kts | 226° |
| 2026-05-04 18:28 | 49.49787 | 11.43898 | 4017 ft | 198 kts | 251° |
| 2026-05-04 18:29 | 49.49363 | 11.41865 | 4018 ft | 201 kts | 254° |
| 2026-05-04 18:29 | 49.48975 | 11.39827 | 4015 ft | 201 kts | 254° |
| 2026-05-04 18:29 | 49.48588 | 11.37763 | 4016 ft | 201 kts | 255° |
| 2026-05-04 18:29 | 49.48203 | 11.35702 | 4016 ft | 201 kts | 255° |
| 2026-05-04 18:30 | 49.47516 | 11.31519 | 3838 ft | 204 kts | 273° |
| 2026-05-04 18:30 | 49.47720 | 11.29388 | 3577 ft | 201 kts | 280° |
| 2026-05-04 18:30 | 49.47934 | 11.27268 | 3326 ft | 200 kts | 280° |
| 2026-05-04 18:31 | 49.48144 | 11.25160 | 3068 ft | 199 kts | 280° |
| 2026-05-04 18:31 | 49.48346 | 11.23130 | 2819 ft | 183 kts | 281° |
| 2026-05-04 18:31 | 49.48532 | 11.21266 | 2567 ft | 170 kts | 281° |
| 2026-05-04 18:31 | 49.48713 | 11.19515 | 2331 ft | 161 kts | 281° |
| 2026-05-04 18:32 | 49.48882 | 11.17895 | 2191 ft | 142 kts | 281° |
| 2026-05-04 18:32 | 49.49025 | 11.16440 | 1951 ft | 132 kts | 282° |
| 2026-05-04 18:32 | 49.49159 | 11.15051 | 1710 ft | 131 kts | 280° |
| 2026-05-04 18:32 | 49.49290 | 11.13678 | 1564 ft | 132 kts | 282° |
| 2026-05-04 18:33 | 49.49429 | 11.12280 | 1380 ft | 133 kts | 279° |
| 2026-05-04 18:33 | 49.49564 | 11.10884 | 1236 ft | 130 kts | 281° |
| 2026-05-04 18:33 | 49.49698 | 11.09519 | 1091 ft | 128 kts | 279° |
| 2026-05-04 18:33 | 49.49828 | 11.08212 | 1034 ft | 115 kts | 280° |
| 2026-05-04 18:34 | 49.49969 | 11.06791 | 1230 ft | 156 kts | 281° |
| 2026-05-04 18:34 | 49.50157 | 11.05097 | 2128 ft | 163 kts | 283° |
| 2026-05-04 18:34 | 49.50365 | 11.03312 | 2633 ft | 180 kts | 282° |
| 2026-05-04 18:34 | 49.50588 | 11.01299 | 3011 ft | 198 kts | 281° |
| 2026-05-04 18:35 | 49.50830 | 10.99136 | 3473 ft | 214 kts | 281° |
| 2026-05-04 18:35 | 49.51097 | 10.96852 | 3810 ft | 216 kts | 281° |
| 2026-05-04 18:35 | 49.51373 | 10.94582 | 4301 ft | 221 kts | 281° |
| 2026-05-04 18:35 | 49.51674 | 10.92217 | 4819 ft | 223 kts | 281° |
| 2026-05-04 18:36 | 49.51985 | 10.89869 | 5206 ft | 225 kts | 281° |
| 2026-05-04 18:36 | 49.52501 | 10.87617 | 5454 ft | 225 kts | 305° |
| 2026-05-04 18:36 | 49.53676 | 10.86119 | 5702 ft | 226 kts | 339° |
| 2026-05-04 18:36 | 49.55223 | 10.85822 | 5929 ft | 228 kts | 7° |
| 2026-05-04 18:37 | 49.56786 | 10.86259 | 6000 ft | 228 kts | 13° |
| 2026-05-04 18:37 | 49.58331 | 10.86820 | 6008 ft | 228 kts | 14° |
| 2026-05-04 18:37 | 49.59871 | 10.87399 | 6010 ft | 228 kts | 14° |
| 2026-05-04 18:37 | 49.61411 | 10.87978 | 6011 ft | 228 kts | 14° |
| 2026-05-04 18:38 | 49.62951 | 10.88559 | 6010 ft | 228 kts | 14° |
| 2026-05-04 18:38 | 49.64494 | 10.89144 | 6011 ft | 228 kts | 14° |
| 2026-05-04 18:38 | 49.66029 | 10.89729 | 6011 ft | 228 kts | 14° |
| 2026-05-04 18:38 | 49.67568 | 10.90317 | 6012 ft | 228 kts | 14° |
| 2026-05-04 18:39 | 49.68993 | 10.91323 | 6007 ft | 226 kts | 43° |
| 2026-05-04 18:39 | 49.69835 | 10.93318 | 6011 ft | 224 kts | 77° |
| 2026-05-04 18:39 | 49.69816 | 10.95664 | 6012 ft | 220 kts | 111° |
| 2026-05-04 18:39 | 49.69133 | 10.97774 | 6014 ft | 220 kts | 123° |
| 2026-05-04 18:40 | 49.68321 | 10.99776 | 6012 ft | 220 kts | 124° |
| 2026-05-04 18:40 | 49.67475 | 11.01788 | 6011 ft | 220 kts | 124° |
| 2026-05-04 18:40 | 49.66638 | 11.03773 | 6013 ft | 220 kts | 124° |
| 2026-05-04 18:40 | 49.65813 | 11.05717 | 6010 ft | 219 kts | 124° |
| 2026-05-04 18:41 | 49.64976 | 11.07684 | 6010 ft | 219 kts | 124° |
| 2026-05-04 18:41 | 49.64141 | 11.09643 | 6010 ft | 219 kts | 124° |
| 2026-05-04 18:41 | 49.63296 | 11.11628 | 6008 ft | 219 kts | 124° |
| 2026-05-04 18:41 | 49.62460 | 11.13586 | 6010 ft | 218 kts | 124° |
| 2026-05-04 18:42 | 49.61665 | 11.15547 | 6009 ft | 219 kts | 118° |
| 2026-05-04 18:42 | 49.60995 | 11.17727 | 5681 ft | 225 kts | 115° |
| 2026-05-04 18:42 | 49.60355 | 11.19948 | 5297 ft | 228 kts | 114° |
| 2026-05-04 18:42 | 49.59704 | 11.22194 | 4992 ft | 229 kts | 114° |
| 2026-05-04 18:43 | 49.59050 | 11.24408 | 4744 ft | 226 kts | 114° |
| 2026-05-04 18:43 | 49.58395 | 11.26592 | 4495 ft | 223 kts | 114° |
| 2026-05-04 18:43 | 49.57744 | 11.28744 | 4232 ft | 221 kts | 114° |
| 2026-05-04 18:43 | 49.57101 | 11.30841 | 4060 ft | 216 kts | 114° |
| 2026-05-04 18:44 | 49.56472 | 11.32870 | 4011 ft | 206 kts | 114° |
| 2026-05-04 18:44 | 49.56058 | 11.34194 | 4008 ft | 201 kts | 114° |
| 2026-05-04 18:44 | 49.55269 | 11.36726 | 4015 ft | 196 kts | 114° |
| 2026-05-04 18:44 | 49.54680 | 11.38614 | 4014 ft | 195 kts | 115° |
| 2026-05-04 18:45 | 49.54092 | 11.40497 | 4018 ft | 195 kts | 114° |
| 2026-05-04 18:45 | 49.53504 | 11.42378 | 4017 ft | 195 kts | 115° |
| 2026-05-04 18:45 | 49.52920 | 11.44258 | 4017 ft | 195 kts | 115° |
| 2026-05-04 18:45 | 49.52289 | 11.46101 | 3998 ft | 196 kts | 127° |
| 2026-05-04 18:46 | 49.51168 | 11.47234 | 4018 ft | 198 kts | 166° |
| 2026-05-04 18:46 | 49.49794 | 11.47267 | 4013 ft | 199 kts | 189° |
| 2026-05-04 18:46 | 49.48540 | 11.46423 | 3991 ft | 200 kts | 223° |
| 2026-05-04 18:46 | 49.47820 | 11.44617 | 4022 ft | 200 kts | 253° |
| 2026-05-04 18:47 | 49.47472 | 11.42543 | 3953 ft | 200 kts | 257° |
| 2026-05-04 18:47 | 49.47167 | 11.40463 | 3906 ft | 196 kts | 259° |
| 2026-05-04 18:47 | 49.46982 | 11.38440 | 3982 ft | 188 kts | 268° |
| 2026-05-04 18:47 | 49.47020 | 11.36428 | 4014 ft | 192 kts | 276° |
| 2026-05-04 18:48 | 49.47189 | 11.34368 | 3942 ft | 196 kts | 281° |
| 2026-05-04 18:48 | 49.47444 | 11.32297 | 3822 ft | 197 kts | 282° |
| 2026-05-04 18:48 | 49.47684 | 11.30264 | 3672 ft | 190 kts | 279° |
| 2026-05-04 18:48 | 49.47853 | 11.28283 | 3398 ft | 185 kts | 279° |
| 2026-05-04 18:49 | 49.48013 | 11.26347 | 3166 ft | 179 kts | 278° |
| 2026-05-04 18:49 | 49.48182 | 11.24530 | 2994 ft | 162 kts | 282° |
| 2026-05-04 18:49 | 49.48382 | 11.22909 | 2774 ft | 146 kts | 282° |
| 2026-05-04 18:49 | 49.48526 | 11.21409 | 2536 ft | 138 kts | 281° |
| 2026-05-04 18:50 | 49.48651 | 11.19967 | 2307 ft | 135 kts | 280° |
| 2026-05-04 18:50 | 49.48784 | 11.18544 | 2122 ft | 135 kts | 284° |
| 2026-05-04 18:50 | 49.48973 | 11.17140 | 2000 ft | 134 kts | 282° |
| 2026-05-04 18:50 | 49.49077 | 11.15716 | 1809 ft | 134 kts | 279° |
| 2026-05-04 18:51 | 49.49222 | 11.14322 | 1672 ft | 131 kts | 282° |
| 2026-05-04 18:51 | 49.49362 | 11.12941 | 1520 ft | 131 kts | 280° |
| 2026-05-04 18:51 | 49.49497 | 11.11555 | 1358 ft | 131 kts | 281° |
| 2026-05-04 18:51 | 49.49636 | 11.10165 | 1178 ft | 131 kts | 281° |
| 2026-05-04 18:52 | 49.49765 | 11.08798 | 1045 ft | 124 kts | 280° |
| 2026-05-04 18:52 | 49.49882 | 11.07712 | 1027 ft | 74 kts | 279° |
| 2026-05-04 18:52 | 49.49937 | 11.07114 | 1021 ft | 39 kts | 278° |
| 2026-05-04 18:52 | 49.49898 | 11.07009 | 1023 ft | 10 kts | 175° |
| 2026-05-04 18:53 | 49.49822 | 11.07047 | 1021 ft | 12 kts | 157° |
| 2026-05-04 18:53 | 49.49803 | 11.07059 | 1021 ft | 0 kts | 159° |
| 2026-05-04 18:54 | 49.49794 | 11.07064 | 1021 ft | 5 kts | 159° |
| 2026-05-04 18:54 | 49.49757 | 11.07094 | 1021 ft | 7 kts | 139° |
| 2026-05-04 18:54 | 49.49736 | 11.07211 | 1022 ft | 15 kts | 98° |
| 2026-05-04 18:55 | 49.49721 | 11.07366 | 1023 ft | 14 kts | 99° |
| 2026-05-04 18:55 | 49.49692 | 11.07651 | 1026 ft | 12 kts | 98° |
| 2026-05-04 18:55 | 49.49679 | 11.07747 | 1026 ft | 5 kts | 120° |
| 2026-05-04 18:56 | 49.49676 | 11.07752 | 1026 ft | 0 kts | 128° |
| 2026-05-04 18:57 | 49.49676 | 11.07753 | 1026 ft | 1 kts | 129° |
| 2026-05-04 18:57 | 49.49637 | 11.07769 | 1026 ft | 11 kts | 186° |
| 2026-05-04 18:57 | 49.49559 | 11.07799 | 1027 ft | 11 kts | 174° |
| 2026-05-04 18:58 | 49.49519 | 11.07792 | 1026 ft | 0 kts | 189° |